Time;durP1;ratioP1;P1;durP2;ratioP2;P2;SDS_P1;SDS_P2;PMS_P1;PMS_P2;Temp;Humidity;BMP_temperature;BMP_pressure;BME280_temperature;BME280_humidity;BME280_pressure;Samples;Min_cycle;Max_cycle;Signal;HPM_P1;HPM_P2
2021/06/29 00:01:57;;;;;;;7.25;4.47;;;21.60;99.90;;;;;;4988062;28;20424;-73
2021/06/29 00:04:23;;;;;;;5.78;3.60;;;21.60;99.90;;;;;;4988301;28;20054;-70
2021/06/29 00:06:49;;;;;;;9.75;4.30;;;21.60;99.90;;;;;;4988966;28;20468;-71
2021/06/29 00:09:15;;;;;;;6.03;4.35;;;21.60;99.90;;;;;;4988884;28;20029;-70
2021/06/29 00:11:42;;;;;;;7.50;4.50;;;21.60;99.90;;;;;;4988674;28;20026;-72
2021/06/29 00:14:08;;;;;;;8.63;3.90;;;21.60;99.90;;;;;;4988871;28;20846;-72
2021/06/29 00:16:34;;;;;;;9.02;4.28;;;21.50;99.90;;;;;;4988318;28;20039;-73
2021/06/29 00:18:59;;;;;;;4.88;3.45;;;21.50;99.90;;;;;;4988546;28;20027;-71
2021/06/29 00:21:25;;;;;;;5.32;4.00;;;21.50;99.90;;;;;;4988744;28;20030;-73
2021/06/29 00:23:51;;;;;;;8.18;3.55;;;21.50;99.90;;;;;;4987476;28;20030;-72
2021/06/29 00:26:16;;;;;;;7.43;4.22;;;21.50;99.90;;;;;;5003378;28;20027;-72
2021/06/29 00:28:42;;;;;;;5.82;3.38;;;21.50;99.90;;;;;;4988426;28;20035;-72
2021/06/29 00:31:08;;;;;;;5.57;3.28;;;21.50;99.90;;;;;;4988431;28;20114;-71
2021/06/29 00:33:34;;;;;;;8.13;4.35;;;21.50;99.90;;;;;;4988274;28;20337;-72
2021/06/29 00:36:03;;;;;;;7.45;4.32;;;21.50;99.90;;;;;;4988179;28;20077;-72
2021/06/29 00:38:29;;;;;;;6.60;3.55;;;21.50;99.90;;;;;;4987720;28;20018;-69
2021/06/29 00:40:55;;;;;;;6.85;4.20;;;21.50;99.90;;;;;;4987594;28;20042;-71
2021/06/29 00:43:20;;;;;;;7.15;3.75;;;21.50;99.90;;;;;;4987820;28;20026;-71
2021/06/29 00:45:46;;;;;;;5.75;3.88;;;21.50;99.90;;;;;;4987481;28;20034;-71
2021/06/29 00:48:12;;;;;;;6.38;4.07;;;21.50;99.90;;;;;;5002671;28;20086;-72
2021/06/29 00:50:40;;;;;;;7.53;4.00;;;21.40;99.90;;;;;;4988322;28;20038;-71
2021/06/29 00:53:06;;;;;;;6.95;3.92;;;21.40;99.90;;;;;;4987397;28;20406;-71
2021/06/29 00:55:31;;;;;;;6.13;3.95;;;21.40;99.90;;;;;;4987312;28;20038;-71
2021/06/29 00:57:58;;;;;;;6.68;4.22;;;21.40;99.90;;;;;;4986737;28;20031;-71
2021/06/29 01:00:24;;;;;;;6.93;4.35;;;21.40;99.90;;;;;;4983952;28;20038;-70
2021/06/29 01:02:50;;;;;;;5.97;4.07;;;21.30;99.90;;;;;;4984267;28;20091;-71
2021/06/29 01:05:15;;;;;;;6.07;4.15;;;21.40;99.90;;;;;;4987001;28;20394;-72
2021/06/29 01:07:41;;;;;;;11.45;4.78;;;21.30;99.90;;;;;;4987308;28;20027;-73
2021/06/29 01:10:08;;;;;;;13.05;5.20;;;21.30;99.90;;;;;;4987150;28;20446;-71
2021/06/29 01:12:35;;;;;;;7.72;4.55;;;21.20;99.90;;;;;;5002116;28;20034;-71
2021/06/29 06:54:34;;;;;;;9.32;5.90;;;19.70;99.90;;;;;;5040474;28;20076;-70
2021/06/29 06:56:59;;;;;;;13.07;5.72;;;19.80;99.90;;;;;;5024723;28;20465;-72
2021/06/29 06:59:29;;;;;;;8.90;5.20;;;19.90;99.90;;;;;;5024527;28;20042;-70
2021/06/29 07:01:54;;;;;;;14.20;5.85;;;19.90;99.90;;;;;;5024597;28;20033;-69
2021/06/29 07:04:21;;;;;;;8.80;6.15;;;20.00;99.90;;;;;;5038803;28;20022;-69
2021/06/29 07:06:47;;;;;;;12.27;6.25;;;20.00;99.90;;;;;;5024420;28;20026;-69
2021/06/29 07:09:15;;;;;;;9.23;6.03;;;20.00;99.90;;;;;;5024370;28;20037;-70
2021/06/29 07:11:42;;;;;;;10.95;5.68;;;20.10;99.90;;;;;;5024329;28;20550;-69
2021/06/29 07:14:09;;;;;;;8.60;5.35;;;20.10;99.90;;;;;;5025129;28;20085;-69
2021/06/29 07:16:35;;;;;;;8.80;5.03;;;20.10;99.90;;;;;;5036857;28;20033;-68
2021/06/29 07:19:00;;;;;;;6.45;4.35;;;20.10;99.90;;;;;;5044364;28;20112;-69
2021/06/29 07:21:26;;;;;;;8.38;5.45;;;20.10;99.90;;;;;;5044279;28;20022;-68
2021/06/29 07:23:56;;;;;;;8.52;5.13;;;20.20;99.90;;;;;;5044366;28;20025;-70
2021/06/29 07:26:23;;;;;;;7.70;4.90;;;20.20;99.90;;;;;;5044380;28;20021;-69
2021/06/29 07:28:49;;;;;;;7.70;4.32;;;20.30;99.90;;;;;;5044120;28;20033;-69
2021/06/29 07:31:17;;;;;;;7.32;4.15;;;20.30;99.90;;;;;;5044556;28;20036;-71
2021/06/29 07:33:47;;;;;;;7.03;4.80;;;20.30;99.90;;;;;;5044704;28;20025;-71
2021/06/29 07:36:16;;;;;;;8.95;4.25;;;20.40;99.90;;;;;;5044589;28;20037;-72
2021/06/29 07:38:43;;;;;;;6.15;3.80;;;20.40;99.90;;;;;;5044129;28;20032;-70
2021/06/29 07:41:11;;;;;;;6.03;3.85;;;20.40;99.90;;;;;;5044649;28;20044;-71
2021/06/29 07:43:37;;;;;;;7.03;4.30;;;20.50;99.90;;;;;;5044396;28;20032;-71
2021/06/29 07:46:02;;;;;;;6.43;4.15;;;20.50;99.90;;;;;;5042345;28;20472;-70
2021/06/29 07:48:28;;;;;;;7.45;4.93;;;20.50;99.90;;;;;;5044575;28;20029;-70
2021/06/29 07:50:54;;;;;;;5.35;3.10;;;20.60;99.90;;;;;;5044084;28;20037;-68
2021/06/29 07:53:20;;;;;;;6.88;4.32;;;20.60;99.90;;;;;;5043501;28;20049;-70
2021/06/29 07:55:46;;;;;;;6.60;4.18;;;20.60;99.90;;;;;;5043009;28;20036;-70
2021/06/29 07:58:12;;;;;;;5.28;3.78;;;20.50;99.90;;;;;;5043961;28;20029;-70
2021/06/29 08:00:37;;;;;;;7.35;3.83;;;20.50;99.90;;;;;;5043798;28;20061;-69
2021/06/29 08:03:04;;;;;;;4.75;3.35;;;20.50;99.90;;;;;;5044115;28;20104;-71
2021/06/29 08:05:30;;;;;;;5.82;3.75;;;20.50;99.90;;;;;;5043825;28;20036;-71
2021/06/29 08:07:56;;;;;;;6.82;3.85;;;20.50;99.90;;;;;;5043348;28;20061;-70
2021/06/29 08:10:22;;;;;;;6.68;4.50;;;20.60;99.90;;;;;;5044291;28;20021;-70
2021/06/29 08:12:49;;;;;;;6.05;4.20;;;20.60;99.90;;;;;;5046993;28;20033;-70
2021/06/29 08:15:16;;;;;;;6.35;4.10;;;20.60;99.90;;;;;;5047865;28;20025;-72
2021/06/29 08:17:44;;;;;;;9.68;4.75;;;20.60;99.90;;;;;;5047691;28;20033;-72
2021/06/29 08:20:12;;;;;;;7.72;4.70;;;20.70;99.90;;;;;;5047668;28;20045;-71
2021/06/29 08:22:38;;;;;;;9.40;4.65;;;20.70;99.90;;;;;;5047781;28;20436;-71
2021/06/29 08:25:05;;;;;;;8.00;4.78;;;20.80;99.90;;;;;;5047691;28;20025;-73
2021/06/29 08:27:30;;;;;;;10.55;4.68;;;20.80;99.90;;;;;;5045740;28;20105;-71
2021/06/29 08:29:58;;;;;;;8.80;5.30;;;20.90;99.90;;;;;;5046887;28;20030;-70
2021/06/29 08:32:24;;;;;;;6.40;3.88;;;20.90;99.90;;;;;;5044323;28;20045;-71
2021/06/29 08:34:50;;;;;;;9.98;4.72;;;20.90;99.90;;;;;;5045091;28;20036;-71
2021/06/29 08:37:17;;;;;;;9.18;4.75;;;21.00;99.90;;;;;;5045520;28;20026;-69
2021/06/29 08:39:43;;;;;;;7.80;4.90;;;21.00;99.90;;;;;;5046557;28;20044;-69
2021/06/29 08:42:11;;;;;;;5.78;4.25;;;21.00;99.90;;;;;;5046806;28;20017;-69
2021/06/29 08:44:38;;;;;;;6.82;4.57;;;21.00;99.90;;;;;;5047360;28;20672;-69
2021/06/29 08:47:08;;;;;;;5.63;4.20;;;21.00;99.90;;;;;;5047198;28;20025;-68
2021/06/29 08:49:33;;;;;;;8.30;5.32;;;21.00;99.90;;;;;;5045685;28;20029;-71
2021/06/29 08:51:59;;;;;;;7.90;5.28;;;21.00;99.90;;;;;;5046131;28;20029;-69
2021/06/29 08:54:25;;;;;;;8.63;5.10;;;21.00;99.90;;;;;;5045549;28;20041;-72
2021/06/29 08:56:51;;;;;;;9.93;4.55;;;21.00;99.90;;;;;;5028789;28;20026;-71
2021/06/29 08:59:17;;;;;;;6.95;4.40;;;21.00;99.90;;;;;;5038267;28;20060;-70
2021/06/29 09:01:42;;;;;;;7.85;4.47;;;21.10;99.90;;;;;;5043052;28;20021;-71
2021/06/29 09:04:08;;;;;;;9.98;5.50;;;21.10;99.90;;;;;;5061416;28;20022;-72
2021/06/29 09:06:37;;;;;;;10.20;4.85;;;21.10;99.90;;;;;;5038728;28;20714;-73
2021/06/29 09:09:21;;;;;;;6.63;4.47;;;21.20;99.90;;;;;;5026596;28;20378;-72
2021/06/29 09:11:47;;;;;;;7.50;4.47;;;21.30;99.90;;;;;;5026998;28;20037;-73
2021/06/29 09:14:15;;;;;;;10.48;5.50;;;21.40;99.90;;;;;;5025555;28;20026;-73
2021/06/29 09:16:43;;;;;;;6.40;4.15;;;21.50;99.90;;;;;;5036365;28;20034;-73
2021/06/29 09:19:08;;;;;;;8.48;4.00;;;21.60;99.90;;;;;;5045771;28;20037;-74
2021/06/29 09:21:37;;;;;;;5.28;3.50;;;21.60;99.90;;;;;;5045479;28;20037;-71
2021/06/29 09:24:05;;;;;;;7.10;4.20;;;21.70;99.90;;;;;;5044848;28;20048;-71
2021/06/29 09:26:37;;;;;;;5.97;3.95;;;21.70;99.90;;;;;;5046649;28;20493;-70
2021/06/29 09:29:05;;;;;;;7.95;3.95;;;21.80;99.90;;;;;;5046232;28;20041;-70
2021/06/29 09:31:34;;;;;;;8.43;4.93;;;21.90;99.90;;;;;;5046194;28;20025;-71
2021/06/29 09:34:04;;;;;;;9.80;4.38;;;21.90;99.90;;;;;;5046253;28;20033;-71
2021/06/29 09:36:35;;;;;;;9.13;5.18;;;22.00;99.90;;;;;;5045320;28;20018;-71
2021/06/29 09:39:08;;;;;;;10.35;5.60;;;22.10;99.90;;;;;;5044244;28;20030;-69
2021/06/29 09:41:36;;;;;;;11.73;5.55;;;22.10;99.90;;;;;;5045276;28;20032;-69
2021/06/29 09:44:05;;;;;;;11.90;5.68;;;22.20;99.90;;;;;;5044086;28;20038;-70
2021/06/29 09:46:31;;;;;;;10.55;6.15;;;22.20;99.90;;;;;;5044032;28;20456;-70
2021/06/29 09:49:02;;;;;;;15.52;6.85;;;22.30;99.90;;;;;;5044062;28;20367;-70
2021/06/29 09:51:31;;;;;;;13.50;6.78;;;22.30;99.90;;;;;;5043187;28;20025;-71
2021/06/29 09:54:07;;;;;;;12.88;7.35;;;22.30;99.90;;;;;;5044487;28;20072;-72
2021/06/29 09:56:40;;;;;;;14.88;7.40;;;22.30;99.90;;;;;;5043832;28;20098;-72
2021/06/29 09:59:14;;;;;;;15.40;7.47;;;22.30;99.90;;;;;;5032768;28;20052;-72
2021/06/29 10:01:41;;;;;;;12.35;7.35;;;22.30;99.90;;;;;;5043518;28;20069;-72
2021/06/29 10:04:09;;;;;;;11.50;7.25;;;22.30;99.90;;;;;;5045710;28;20529;-69
2021/06/29 10:06:37;;;;;;;12.68;6.95;;;22.30;99.90;;;;;;5043399;28;20743;-70
2021/06/29 10:09:15;;;;;;;14.90;6.82;;;22.30;99.90;;;;;;5040972;28;20388;-69
2021/06/29 10:11:53;;;;;;;15.07;7.82;;;22.30;99.90;;;;;;5044942;28;20033;-72
2021/06/29 10:14:21;;;;;;;9.98;6.35;;;22.20;99.90;;;;;;5044653;28;20037;-69
2021/06/29 10:16:48;;;;;;;8.98;6.10;;;22.20;99.90;;;;;;5044949;28;20021;-71
2021/06/29 10:19:34;;;;;;;15.35;7.35;;;22.10;99.90;;;;;;5045255;28;20025;-72
2021/06/29 10:22:02;;;;;;;12.48;7.47;;;22.10;99.90;;;;;;5057328;28;20029;-71
2021/06/29 10:24:32;;;;;;;11.00;5.93;;;22.10;99.90;;;;;;5043210;28;20044;-71
2021/06/29 10:26:59;;;;;;;11.75;6.18;;;22.10;99.90;;;;;;5044280;28;20033;-71
2021/06/29 10:29:26;;;;;;;8.82;5.93;;;22.10;99.90;;;;;;5044850;28;20031;-69
2021/06/29 10:31:55;;;;;;;10.73;6.13;;;22.10;99.90;;;;;;5045162;28;20029;-68
2021/06/29 10:34:23;;;;;;;12.50;6.30;;;22.10;99.90;;;;;;5044567;28;20022;-69
2021/06/29 10:36:51;;;;;;;10.77;6.95;;;22.00;99.90;;;;;;5045034;28;20018;-69
2021/06/29 10:39:21;;;;;;;15.75;7.60;;;22.00;99.90;;;;;;5044542;28;20089;-69
2021/06/29 10:41:51;;;;;;;9.55;6.05;;;22.00;99.90;;;;;;5044557;28;20033;-68
2021/06/29 10:44:19;;;;;;;10.07;7.07;;;22.00;99.90;;;;;;5044363;28;20025;-69
2021/06/29 10:46:47;;;;;;;8.77;6.00;;;21.90;99.90;;;;;;5044760;28;20022;-70
2021/06/29 10:49:31;;;;;;;10.15;6.18;;;21.80;99.90;;;;;;5045227;28;20029;-69
2021/06/29 10:51:59;;;;;;;11.65;7.18;;;21.80;99.90;;;;;;5044608;28;20111;-67
2021/06/29 10:54:39;;;;;;;12.00;7.30;;;21.70;99.90;;;;;;5044370;28;20061;-71
2021/06/29 10:57:10;;;;;;;15.90;8.57;;;21.60;99.90;;;;;;5044870;28;20045;-71
2021/06/29 10:59:39;;;;;;;15.68;7.30;;;21.60;99.90;;;;;;5042761;28;20061;-67
2021/06/29 11:02:05;;;;;;;12.90;4.97;;;21.60;99.90;;;;;;5043338;28;20056;-68
2021/06/29 11:04:51;;;;;;;9.57;5.32;;;21.60;99.90;;;;;;5044242;28;20030;-67
2021/06/29 11:07:29;;;;;;;11.38;4.10;;;21.50;99.90;;;;;;5043162;28;20045;-69
2021/06/29 11:09:58;;;;;;;9.85;4.15;;;21.50;99.90;;;;;;5044972;28;20037;-68
2021/06/29 11:12:28;;;;;;;6.82;4.20;;;21.50;99.90;;;;;;5044356;28;20025;-70
2021/06/29 11:14:56;;;;;;;4.18;3.42;;;21.50;99.90;;;;;;5044564;28;20034;-69
2021/06/29 11:17:23;;;;;;;4.45;3.28;;;21.40;99.90;;;;;;5042375;28;20465;-68
2021/06/29 11:20:00;;;;;;;5.45;3.53;;;21.30;99.90;;;;;;5043607;28;20087;-69
2021/06/29 11:22:56;;;;;;;6.15;4.03;;;21.20;99.90;;;;;;5044428;28;20085;-68
2021/06/29 11:25:56;;;;;;;5.40;3.47;;;21.20;99.90;;;;;;5044226;28;20362;-68
2021/06/29 11:28:30;;;;;;;8.13;3.50;;;21.10;99.90;;;;;;5044091;28;20029;-71
2021/06/29 11:31:20;;;;;;;4.93;3.67;;;21.10;99.90;;;;;;5042560;28;20061;-68
2021/06/29 11:33:50;;;;;;;6.40;4.22;;;21.10;99.90;;;;;;5037925;28;20033;-70
2021/06/29 11:36:35;;;;;;;8.93;4.15;;;21.00;99.90;;;;;;5041294;28;20017;-71
2021/06/29 11:39:23;;;;;;;7.97;4.07;;;21.00;99.90;;;;;;5040848;28;20030;-71
2021/06/29 11:42:02;;;;;;;8.18;5.00;;;21.00;99.90;;;;;;5043053;28;20037;-70
2021/06/29 11:44:27;;;;;;;13.73;4.70;;;21.00;99.90;;;;;;5044053;28;20022;-71
2021/06/29 11:47:03;;;;;;;5.50;3.88;;;21.10;99.90;;;;;;5045005;28;20029;-71
2021/06/29 11:49:30;;;;;;;6.82;4.35;;;21.10;99.90;;;;;;5048050;28;20022;-71
2021/06/29 11:52:03;;;;;;;9.00;4.68;;;21.20;99.90;;;;;;5048510;28;20037;-71
2021/06/29 11:54:34;;;;;;;6.97;4.35;;;21.20;99.90;;;;;;5047754;28;20058;-71
2021/06/29 11:57:18;;;;;;;6.05;3.63;;;21.30;99.90;;;;;;5048120;28;20049;-71
2021/06/29 11:59:44;;;;;;;;;;;21.30;99.90;;;;;;5048641;28;20112;-73
2021/06/29 12:02:29;;;;;;;8.23;3.08;;;21.30;99.90;;;;;;5045374;28;19951;-72
2021/06/29 12:05:02;;;;;;;5.65;3.13;;;21.30;99.90;;;;;;5041555;28;20089;-72
2021/06/29 12:07:43;;;;;;;4.07;3.40;;;21.30;99.90;;;;;;5044020;28;20064;-72
2021/06/29 12:10:18;;;;;;;3.88;2.40;;;21.30;99.90;;;;;;5047575;28;20034;-72
2021/06/29 12:13:06;;;;;;;7.20;3.22;;;21.20;99.90;;;;;;5046977;28;20025;-71
2021/06/29 12:15:35;;;;;;;5.45;2.88;;;21.20;99.90;;;;;;5045749;28;20041;-73
2021/06/29 12:18:02;;;;;;;4.68;3.15;;;21.20;99.90;;;;;;5046527;28;20109;-72
2021/06/29 12:20:36;;;;;;;4.68;3.10;;;21.20;99.90;;;;;;5045122;28;20060;-74
2021/06/29 12:23:11;;;;;;;3.83;3.10;;;21.30;99.90;;;;;;5046241;28;20081;-71
2021/06/29 12:25:46;;;;;;;4.25;2.80;;;21.30;99.90;;;;;;5046605;28;20033;-72
2021/06/29 12:28:16;;;;;;;3.25;1.85;;;21.30;99.90;;;;;;5046309;28;20033;-72
2021/06/29 12:30:44;;;;;;;2.20;1.70;;;21.20;99.90;;;;;;5046225;28;20029;-72
2021/06/29 12:33:19;;;;;;;2.33;1.88;;;21.30;99.90;;;;;;5044324;28;20037;-72
2021/06/29 12:36:03;;;;;;;2.83;1.85;;;21.20;99.90;;;;;;5045503;28;20032;-71
2021/06/29 12:38:31;;;;;;;4.30;2.47;;;21.20;99.90;;;;;;5044181;28;20039;-68
2021/06/29 12:41:01;;;;;;;4.90;2.75;;;21.10;99.90;;;;;;5044470;28;20048;-70
2021/06/29 12:43:31;;;;;;;5.00;2.65;;;20.90;99.90;;;;;;5040052;28;20065;-72
2021/06/29 12:46:18;;;;;;;4.78;3.03;;;20.90;99.90;;;;;;5043166;28;20022;-71
2021/06/29 12:49:16;;;;;;;8.40;2.20;;;20.80;99.90;;;;;;5043774;28;20037;-73
2021/06/29 12:51:48;;;;;;;4.45;3.15;;;20.60;99.90;;;;;;5042592;28;20021;-78
2021/06/29 12:54:16;;;;;;;4.90;3.33;;;20.40;99.90;;;;;;5039519;28;20179;-74
2021/06/29 12:56:52;;;;;;;5.63;4.15;;;20.20;99.90;;;;;;5043636;28;20099;-75
2021/06/29 12:59:20;;;;;;;8.73;3.67;;;20.10;99.90;;;;;;5043350;28;20133;-73
2021/06/29 13:01:48;;;;;;;9.40;4.82;;;20.00;99.90;;;;;;5044274;28;20025;-77
2021/06/29 13:04:16;;;;;;;9.68;4.47;;;20.00;99.90;;;;;;5043565;28;20120;-75
2021/06/29 13:06:45;;;;;;;6.70;5.00;;;20.10;99.90;;;;;;5045388;28;20025;-74
2021/06/29 13:09:17;;;;;;;6.43;4.35;;;20.30;99.90;;;;;;5043162;28;20026;-76
2021/06/29 13:12:02;;;;;;;9.05;5.50;;;20.30;99.90;;;;;;5045317;28;20036;-76
2021/06/29 13:14:29;;;;;;;6.00;4.55;;;20.50;99.90;;;;;;5044852;28;20036;-76
2021/06/29 13:17:12;;;;;;;8.40;5.50;;;20.60;99.90;;;;;;5043367;28;20426;-76
2021/06/29 13:19:38;;;;;;;7.20;4.22;;;20.80;99.90;;;;;;5045270;28;20038;-74
2021/06/29 13:22:09;;;;;;;6.93;4.68;;;20.90;99.90;;;;;;5045059;28;20888;-76
2021/06/29 13:24:50;;;;;;;4.28;3.35;;;21.00;99.90;;;;;;5044454;28;20030;-75
2021/06/29 13:27:33;;;;;;;5.18;3.45;;;21.10;99.90;;;;;;5044977;28;20509;-75
2021/06/29 13:30:04;;;;;;;6.53;3.08;;;21.20;99.90;;;;;;5042045;28;20037;-77
2021/06/29 13:32:36;;;;;;;7.10;4.05;;;21.30;99.90;;;;;;5043561;28;20048;-75
2021/06/29 13:35:12;;;;;;;5.45;3.55;;;21.30;99.90;;;;;;5045026;28;20025;-74
2021/06/29 13:37:40;;;;;;;4.50;3.25;;;21.50;99.90;;;;;;5044441;28;20033;-74
2021/06/29 13:40:22;;;;;;;3.70;2.70;;;21.60;99.90;;;;;;5044304;28;20061;-75
2021/06/29 13:42:51;;;;;;;4.40;3.10;;;21.70;99.90;;;;;;5044599;28;20029;-75
2021/06/29 13:45:18;;;;;;;3.28;2.75;;;21.80;99.90;;;;;;5043655;28;20072;-75
2021/06/29 13:47:49;;;;;;;5.68;3.38;;;21.90;99.90;;;;;;5043776;28;20025;-75
2021/06/29 13:50:16;;;;;;;3.65;3.00;;;22.10;99.90;;;;;;5043328;28;20048;-76
2021/06/29 13:53:03;;;;;;;5.32;3.67;;;22.30;99.90;;;;;;5042435;28;20060;-74
2021/06/29 13:55:35;;;;;;;5.68;3.75;;;22.80;99.90;;;;;;5044320;28;20115;-74
2021/06/29 13:58:20;;;;;;;3.33;2.60;;;23.30;99.90;;;;;;5043167;28;20029;-73
2021/06/29 14:00:52;;;;;;;5.20;3.50;;;23.70;99.90;;;;;;5044126;28;20076;-72
2021/06/29 14:03:20;;;;;;;5.75;3.60;;;23.90;99.90;;;;;;5043758;28;20029;-72
2021/06/29 14:05:49;;;;;;;3.72;2.53;;;24.00;99.90;;;;;;5044102;28;20025;-74
2021/06/29 14:08:16;;;;;;;5.45;3.35;;;24.00;99.90;;;;;;5043540;28;20044;-72
2021/06/29 14:11:06;;;;;;;5.43;3.88;;;24.00;99.90;;;;;;5043194;28;20040;-71
2021/06/29 14:13:55;;;;;;;6.78;3.63;;;23.90;99.90;;;;;;5038159;28;20041;-72
2021/06/29 14:16:23;;;;;;;4.03;2.85;;;23.80;99.90;;;;;;5043718;28;20055;-73
2021/06/29 14:18:49;;;;;;;6.88;3.40;;;23.80;99.90;;;;;;5043106;28;20120;-75
2021/06/29 14:21:18;;;;;;;5.47;3.60;;;23.70;99.90;;;;;;5044356;28;20037;-76
2021/06/29 14:23:48;;;;;;;9.23;3.40;;;23.70;99.90;;;;;;5043129;28;20492;-73
2021/06/29 14:26:15;;;;;;;4.63;3.38;;;23.60;99.90;;;;;;5042881;28;20048;-74
2021/06/29 14:28:42;;;;;;;3.40;2.80;;;23.60;99.90;;;;;;5043974;28;20026;-76
2021/06/29 14:31:09;;;;;;;3.83;2.30;;;23.40;99.90;;;;;;5044201;28;20464;-74
2021/06/29 14:33:38;;;;;;;3.17;2.20;;;23.30;99.90;;;;;;5042927;28;20746;-74
2021/06/29 14:36:13;;;;;;;4.38;2.92;;;23.20;99.90;;;;;;5044086;28;20381;-72
2021/06/29 14:38:39;;;;;;;4.95;2.30;;;23.00;99.90;;;;;;5044560;28;20034;-73
2021/06/29 14:41:07;;;;;;;3.13;2.72;;;22.80;99.90;;;;;;5043737;28;20470;-75
2021/06/29 14:43:35;;;;;;;4.75;2.65;;;22.60;99.90;;;;;;5044172;28;20028;-74
2021/06/29 14:46:02;;;;;;;3.28;2.67;;;22.50;99.90;;;;;;5041735;28;20461;-75
2021/06/29 14:48:28;;;;;;;4.30;3.17;;;22.50;99.90;;;;;;5044757;28;20105;-75
2021/06/29 14:50:54;;;;;;;5.75;2.95;;;22.40;99.90;;;;;;5043583;28;20022;-74
2021/06/29 14:53:19;;;;;;;3.42;2.40;;;22.30;99.90;;;;;;5042773;28;20049;-76
2021/06/29 14:55:45;;;;;;;2.58;1.90;;;22.20;99.90;;;;;;5043566;28;20025;-75
2021/06/29 14:58:13;;;;;;;2.95;1.77;;;22.10;99.90;;;;;;5039754;28;20123;-77
2021/06/29 15:00:39;;;;;;;2.90;2.22;;;22.10;99.90;;;;;;5041366;28;20096;-74
2021/06/29 15:03:10;;;;;;;2.25;1.75;;;22.10;99.90;;;;;;5044059;28;20033;-77
2021/06/29 15:05:38;;;;;;;2.55;1.98;;;22.10;99.90;;;;;;5042307;28;20033;-77
2021/06/29 15:08:09;;;;;;;4.30;2.42;;;22.10;99.90;;;;;;5042425;28;20025;-76
2021/06/29 15:10:35;;;;;;;3.13;1.95;;;22.20;99.90;;;;;;5043080;28;20055;-76
2021/06/29 15:13:05;;;;;;;2.72;2.03;;;22.20;99.90;;;;;;5044676;28;20028;-75
2021/06/29 15:15:31;;;;;;;2.47;2.22;;;22.30;99.90;;;;;;5044337;28;20037;-74
2021/06/29 15:17:57;;;;;;;2.80;1.75;;;22.30;99.90;;;;;;5043007;28;20021;-75
2021/06/29 15:20:23;;;;;;;3.05;1.83;;;22.20;99.90;;;;;;5043897;28;20072;-74
2021/06/29 15:22:50;;;;;;;3.55;2.25;;;22.10;99.90;;;;;;5043190;28;20374;-73
2021/06/29 15:25:28;;;;;;;4.35;2.63;;;22.10;99.90;;;;;;5030579;28;20045;-75
2021/06/29 15:27:54;;;;;;;3.25;2.25;;;22.00;99.90;;;;;;5026933;28;20029;-74
2021/06/29 15:30:20;;;;;;;1.42;1.25;;;21.80;99.90;;;;;;5041124;28;20029;-74
2021/06/29 15:32:46;;;;;;;3.67;1.52;;;21.40;99.90;;;;;;5031372;28;20079;-72
2021/06/29 15:35:14;;;;;;;1.17;0.90;;;20.90;99.90;;;;;;5043405;28;20029;-72
2021/06/29 15:37:43;;;;;;;4.00;1.95;;;20.30;99.90;;;;;;5033496;28;20026;-76
2021/06/29 15:40:25;;;;;;;3.95;1.63;;;19.90;99.90;;;;;;5029845;28;20077;-76
2021/06/29 15:42:51;;;;;;;2.80;1.67;;;19.60;99.90;;;;;;5023337;28;20037;-80
2021/06/29 15:45:17;;;;;;;4.95;2.47;;;19.40;99.90;;;;;;5039777;28;20033;-79
2021/06/29 15:47:46;;;;;;;4.47;2.55;;;19.20;99.90;;;;;;5039931;28;20026;-74
2021/06/29 15:50:15;;;;;;;3.20;2.10;;;19.00;99.90;;;;;;5023778;28;20032;-76
2021/06/29 15:52:42;;;;;;;3.80;2.42;;;18.80;99.90;;;;;;5023706;28;20050;-72
2021/06/29 15:55:09;;;;;;;7.60;3.13;;;18.70;99.90;;;;;;5024497;28;20092;-70
2021/06/29 15:57:35;;;;;;;2.55;1.95;;;18.70;99.90;;;;;;5024229;28;20022;-71
2021/06/29 16:00:01;;;;;;;4.65;2.95;;;18.70;99.90;;;;;;5023820;28;20049;-71
2021/06/29 16:02:26;;;;;;;3.72;2.80;;;18.70;99.90;;;;;;5023527;28;20026;-71
2021/06/29 16:04:52;;;;;;;3.50;2.55;;;18.80;99.90;;;;;;5024076;28;20034;-71
2021/06/29 16:07:19;;;;;;;5.30;3.22;;;18.80;99.90;;;;;;5023869;28;20026;-74
2021/06/29 16:09:45;;;;;;;6.03;2.97;;;18.80;99.90;;;;;;5024078;28;20129;-72
2021/06/29 16:12:11;;;;;;;5.15;3.00;;;18.90;99.90;;;;;;5024377;28;20026;-72
2021/06/29 16:14:37;;;;;;;4.65;3.10;;;18.90;99.90;;;;;;5023832;28;20533;-71
2021/06/29 16:17:03;;;;;;;4.45;2.83;;;18.90;99.90;;;;;;5023397;28;20049;-71
2021/06/29 16:19:28;;;;;;;8.10;2.45;;;18.90;99.90;;;;;;5023387;28;20033;-72
2021/06/29 16:21:55;;;;;;;3.90;2.45;;;18.90;99.90;;;;;;5023974;28;20029;-71
2021/06/29 16:24:22;;;;;;;4.30;2.47;;;18.90;99.90;;;;;;5039169;28;20030;-71
2021/06/29 16:26:49;;;;;;;8.68;2.88;;;18.80;99.90;;;;;;5035246;28;20030;-72
2021/06/29 16:29:15;;;;;;;5.40;2.85;;;18.80;99.90;;;;;;5043907;28;20079;-70
2021/06/29 16:31:42;;;;;;;4.90;2.58;;;18.80;99.90;;;;;;5043627;28;20030;-72
2021/06/29 16:34:08;;;;;;;3.63;2.58;;;18.80;99.90;;;;;;5047171;28;20261;-74
2021/06/29 16:36:34;;;;;;;3.00;2.08;;;18.80;99.90;;;;;;5044936;28;20025;-73
2021/06/29 16:39:00;;;;;;;5.35;2.75;;;18.80;99.90;;;;;;5045978;28;20033;-71
2021/06/29 16:41:26;;;;;;;3.88;2.60;;;18.80;99.90;;;;;;5046530;28;20067;-69
2021/06/29 16:43:51;;;;;;;7.28;3.10;;;18.70;99.90;;;;;;5047083;28;20482;-74
2021/06/29 16:46:18;;;;;;;3.38;2.13;;;18.70;99.90;;;;;;5046655;28;20026;-70
2021/06/29 16:48:44;;;;;;;7.30;2.70;;;18.60;99.90;;;;;;5046018;28;20045;-72
2021/06/29 16:51:12;;;;;;;3.22;2.13;;;18.70;99.90;;;;;;5047594;28;20037;-72
2021/06/29 16:53:39;;;;;;;3.88;2.33;;;18.70;99.90;;;;;;5046554;28;20057;-71
2021/06/29 16:56:17;;;;;;;3.78;1.92;;;18.60;99.90;;;;;;5047387;28;20052;-73
2021/06/29 16:58:43;;;;;;;3.85;2.38;;;18.60;99.90;;;;;;5046923;28;20033;-74
2021/06/29 17:01:08;;;;;;;4.13;2.22;;;18.60;99.90;;;;;;5061379;28;20037;-71
2021/06/29 17:03:34;;;;;;;3.40;2.28;;;18.60;99.90;;;;;;5047037;28;20021;-72
2021/06/29 17:06:00;;;;;;;5.32;2.92;;;18.60;99.90;;;;;;5046808;28;20033;-72
2021/06/29 17:08:26;;;;;;;3.25;2.08;;;18.60;99.90;;;;;;5046345;28;20085;-72
2021/06/29 17:10:51;;;;;;;3.22;1.92;;;18.60;99.90;;;;;;5046444;28;20026;-72
2021/06/29 17:13:17;;;;;;;2.90;2.20;;;18.50;99.90;;;;;;5045651;28;20083;-73
2021/06/29 17:15:43;;;;;;;2.78;2.10;;;18.50;99.90;;;;;;5046514;28;20025;-71
2021/06/29 17:18:09;;;;;;;4.28;2.30;;;18.40;99.90;;;;;;5045583;28;20030;-72
2021/06/29 17:20:35;;;;;;;4.65;2.55;;;18.40;99.90;;;;;;5044891;28;20045;-72
2021/06/29 17:23:00;;;;;;;4.50;2.35;;;18.30;99.90;;;;;;5045838;28;20081;-72
2021/06/29 17:25:26;;;;;;;4.32;2.80;;;18.30;99.90;;;;;;5061557;28;20021;-72
2021/06/29 17:27:52;;;;;;;2.75;1.88;;;18.30;99.90;;;;;;5044179;28;20548;-73
2021/06/29 17:30:19;;;;;;;2.65;1.77;;;18.30;99.90;;;;;;5046173;28;20080;-72
2021/06/29 17:32:45;;;;;;;13.90;3.00;;;18.30;99.90;;;;;;5046274;28;20025;-72
2021/06/29 17:35:16;;;;;;;3.97;2.30;;;18.30;99.90;;;;;;5046334;28;20362;-74
2021/06/29 17:37:42;;;;;;;4.72;2.63;;;18.30;99.90;;;;;;5046248;28;20086;-74
2021/06/29 17:40:10;;;;;;;4.60;2.80;;;18.30;99.90;;;;;;5046366;28;20046;-74
2021/06/29 17:42:37;;;;;;;5.80;2.95;;;18.30;99.90;;;;;;5044601;28;20033;-73
2021/06/29 17:45:04;;;;;;;3.40;2.38;;;18.30;99.90;;;;;;5044545;28;20116;-73
2021/06/29 17:47:30;;;;;;;2.92;1.70;;;18.30;99.90;;;;;;5046980;28;20057;-73
2021/06/29 17:49:56;;;;;;;2.90;2.15;;;18.30;99.90;;;;;;5061051;28;20488;-71
2021/06/29 17:52:23;;;;;;;3.78;2.25;;;18.30;99.90;;;;;;5045109;28;20029;-69
2021/06/29 17:54:50;;;;;;;4.38;2.78;;;18.30;99.90;;;;;;5045257;28;20049;-70
2021/06/29 17:57:16;;;;;;;5.53;2.25;;;18.20;99.90;;;;;;5045465;28;20056;-70
2021/06/29 17:59:45;;;;;;;3.50;2.35;;;18.20;99.90;;;;;;5045761;28;20436;-72
2021/06/29 18:02:13;;;;;;;3.85;2.78;;;18.20;99.90;;;;;;5045649;28;20389;-70
2021/06/29 18:04:39;;;;;;;3.33;2.45;;;18.20;99.90;;;;;;5060997;28;20080;-69
2021/06/29 18:07:05;;;;;;;6.57;2.72;;;18.20;99.90;;;;;;5045815;28;20032;-70
2021/06/29 18:09:33;;;;;;;5.05;2.83;;;18.20;99.90;;;;;;5045181;28;20459;-72
2021/06/29 18:11:59;;;;;;;4.97;2.50;;;18.10;99.90;;;;;;5043767;28;20033;-70
2021/06/29 18:14:26;;;;;;;4.07;2.20;;;18.10;99.90;;;;;;5044932;28;20455;-70
2021/06/29 18:16:52;;;;;;;5.03;3.08;;;18.10;99.90;;;;;;5044705;28;20025;-72
2021/06/29 18:19:17;;;;;;;9.88;3.03;;;18.10;99.90;;;;;;5045354;28;20021;-70
2021/06/29 18:21:44;;;;;;;6.43;3.60;;;18.10;99.90;;;;;;5045256;28;20036;-72
2021/06/29 18:24:12;;;;;;;5.20;3.03;;;18.20;99.90;;;;;;5044731;28;20021;-68
2021/06/29 18:26:40;;;;;;;5.72;3.33;;;18.10;99.90;;;;;;5045062;28;20028;-70
2021/06/29 18:29:06;;;;;;;8.65;3.22;;;18.20;99.90;;;;;;5045485;28;20085;-72
2021/06/29 18:31:32;;;;;;;4.15;2.15;;;18.20;99.90;;;;;;5045094;28;20465;-71
2021/06/29 18:33:59;;;;;;;3.78;2.95;;;18.20;99.90;;;;;;5043107;28;20025;-73
2021/06/29 18:36:34;;;;;;;4.65;2.72;;;18.10;99.90;;;;;;5044221;28;20025;-72